sensor_id;sensor_type;location;lat;lon;timestamp;P1;durP1;ratioP1;P2;durP2;ratioP2
5137;SDS011;53959;53.626;11.410;2022-07-23T00:00:31;2.90;;;0.90;;
5137;SDS011;53959;53.626;11.410;2022-07-23T00:02:56;7.77;;;0.90;;
5137;SDS011;53959;53.626;11.410;2022-07-23T00:05:22;2.40;;;0.80;;
5137;SDS011;53959;53.626;11.410;2022-07-23T00:07:47;1.07;;;0.73;;
5137;SDS011;53959;53.626;11.410;2022-07-23T00:10:13;1.07;;;0.80;;
5137;SDS011;53959;53.626;11.410;2022-07-23T00:12:39;4.00;;;1.10;;
5137;SDS011;53959;53.626;11.410;2022-07-23T00:15:05;6.53;;;1.13;;
5137;SDS011;53959;53.626;11.410;2022-07-23T00:17:31;4.57;;;1.50;;
5137;SDS011;53959;53.626;11.410;2022-07-23T00:19:57;1.90;;;0.80;;
5137;SDS011;53959;53.626;11.410;2022-07-23T00:22:22;4.67;;;1.17;;
5137;SDS011;53959;53.626;11.410;2022-07-23T00:24:48;2.67;;;1.10;;
5137;SDS011;53959;53.626;11.410;2022-07-23T00:27:14;4.30;;;1.00;;
5137;SDS011;53959;53.626;11.410;2022-07-23T00:29:39;0.90;;;0.80;;
5137;SDS011;53959;53.626;11.410;2022-07-23T00:32:05;8.23;;;1.13;;
5137;SDS011;53959;53.626;11.410;2022-07-23T00:34:30;3.20;;;0.93;;
5137;SDS011;53959;53.626;11.410;2022-07-23T00:36:56;12.80;;;1.27;;
5137;SDS011;53959;53.626;11.410;2022-07-23T00:39:22;2.70;;;1.40;;
5137;SDS011;53959;53.626;11.410;2022-07-23T00:41:47;2.87;;;0.80;;
5137;SDS011;53959;53.626;11.410;2022-07-23T00:44:31;4.53;;;1.00;;
5137;SDS011;53959;53.626;11.410;2022-07-23T00:46:58;3.53;;;0.73;;
5137;SDS011;53959;53.626;11.410;2022-07-23T00:49:25;2.77;;;1.00;;
5137;SDS011;53959;53.626;11.410;2022-07-23T00:51:53;2.93;;;1.20;;
5137;SDS011;53959;53.626;11.410;2022-07-23T00:54:19;2.83;;;0.90;;
5137;SDS011;53959;53.626;11.410;2022-07-23T00:56:48;3.60;;;0.90;;
5137;SDS011;53959;53.626;11.410;2022-07-23T00:59:13;1.80;;;0.90;;
5137;SDS011;53959;53.626;11.410;2022-07-23T01:01:39;0.80;;;0.60;;
5137;SDS011;53959;53.626;11.410;2022-07-23T01:04:05;2.03;;;0.90;;
5137;SDS011;53959;53.626;11.410;2022-07-23T01:06:34;5.30;;;0.90;;
5137;SDS011;53959;53.626;11.410;2022-07-23T01:09:01;6.40;;;1.03;;
5137;SDS011;53959;53.626;11.410;2022-07-23T01:11:28;3.17;;;1.00;;
5137;SDS011;53959;53.626;11.410;2022-07-23T01:13:54;2.37;;;1.20;;
5137;SDS011;53959;53.626;11.410;2022-07-23T01:16:20;1.10;;;1.10;;
5137;SDS011;53959;53.626;11.410;2022-07-23T01:18:45;1.70;;;1.10;;
5137;SDS011;53959;53.626;11.410;2022-07-23T01:21:11;2.03;;;1.03;;
5137;SDS011;53959;53.626;11.410;2022-07-23T01:23:40;2.03;;;1.10;;
5137;SDS011;53959;53.626;11.410;2022-07-23T01:26:06;2.83;;;1.13;;
5137;SDS011;53959;53.626;11.410;2022-07-23T01:28:31;2.00;;;1.07;;
5137;SDS011;53959;53.626;11.410;2022-07-23T01:30:57;4.47;;;1.23;;
5137;SDS011;53959;53.626;11.410;2022-07-23T01:33:23;2.97;;;1.07;;
5137;SDS011;53959;53.626;11.410;2022-07-23T01:35:48;3.90;;;0.90;;
5137;SDS011;53959;53.626;11.410;2022-07-23T01:38:14;0.80;;;0.80;;
5137;SDS011;53959;53.626;11.410;2022-07-23T01:40:39;3.57;;;1.50;;
5137;SDS011;53959;53.626;11.410;2022-07-23T01:43:05;2.10;;;0.90;;
5137;SDS011;53959;53.626;11.410;2022-07-23T01:45:30;6.57;;;1.40;;
5137;SDS011;53959;53.626;11.410;2022-07-23T01:47:56;1.33;;;1.07;;
5137;SDS011;53959;53.626;11.410;2022-07-23T01:50:21;4.60;;;0.87;;
5137;SDS011;53959;53.626;11.410;2022-07-23T01:52:47;0.83;;;0.83;;
5137;SDS011;53959;53.626;11.410;2022-07-23T01:55:12;1.40;;;0.83;;
5137;SDS011;53959;53.626;11.410;2022-07-23T01:57:38;3.33;;;0.90;;
5137;SDS011;53959;53.626;11.410;2022-07-23T02:00:04;1.07;;;0.63;;
5137;SDS011;53959;53.626;11.410;2022-07-23T02:02:29;2.10;;;1.00;;
5137;SDS011;53959;53.626;11.410;2022-07-23T02:04:55;1.37;;;1.27;;
5137;SDS011;53959;53.626;11.410;2022-07-23T02:07:20;3.37;;;0.70;;
5137;SDS011;53959;53.626;11.410;2022-07-23T02:09:46;3.63;;;1.03;;
5137;SDS011;53959;53.626;11.410;2022-07-23T02:12:12;1.73;;;0.67;;
5137;SDS011;53959;53.626;11.410;2022-07-23T02:14:38;2.00;;;0.73;;
5137;SDS011;53959;53.626;11.410;2022-07-23T02:17:03;1.17;;;0.80;;
5137;SDS011;53959;53.626;11.410;2022-07-23T02:19:29;1.23;;;0.80;;
5137;SDS011;53959;53.626;11.410;2022-07-23T02:21:54;7.90;;;1.10;;
5137;SDS011;53959;53.626;11.410;2022-07-23T02:24:20;4.70;;;1.13;;
5137;SDS011;53959;53.626;11.410;2022-07-23T02:26:46;3.30;;;0.93;;
5137;SDS011;53959;53.626;11.410;2022-07-23T02:29:11;0.87;;;0.77;;
5137;SDS011;53959;53.626;11.410;2022-07-23T02:31:37;2.43;;;1.10;;
5137;SDS011;53959;53.626;11.410;2022-07-23T02:34:02;2.60;;;1.07;;
5137;SDS011;53959;53.626;11.410;2022-07-23T02:36:28;1.87;;;0.80;;
5137;SDS011;53959;53.626;11.410;2022-07-23T02:38:54;4.20;;;0.80;;
5137;SDS011;53959;53.626;11.410;2022-07-23T02:41:19;3.60;;;0.83;;
5137;SDS011;53959;53.626;11.410;2022-07-23T02:43:45;1.23;;;0.90;;
5137;SDS011;53959;53.626;11.410;2022-07-23T02:46:10;1.13;;;1.03;;
5137;SDS011;53959;53.626;11.410;2022-07-23T02:48:36;5.00;;;1.37;;
5137;SDS011;53959;53.626;11.410;2022-07-23T02:51:02;1.13;;;1.03;;
5137;SDS011;53959;53.626;11.410;2022-07-23T02:53:27;6.63;;;1.10;;
5137;SDS011;53959;53.626;11.410;2022-07-23T02:55:53;1.23;;;0.90;;
5137;SDS011;53959;53.626;11.410;2022-07-23T02:58:18;9.40;;;1.30;;
5137;SDS011;53959;53.626;11.410;2022-07-23T03:00:44;8.10;;;0.97;;
5137;SDS011;53959;53.626;11.410;2022-07-23T03:03:09;8.93;;;1.43;;
5137;SDS011;53959;53.626;11.410;2022-07-23T03:05:35;2.67;;;0.90;;
5137;SDS011;53959;53.626;11.410;2022-07-23T03:08:01;2.83;;;1.00;;
5137;SDS011;53959;53.626;11.410;2022-07-23T03:10:27;4.83;;;1.47;;
5137;SDS011;53959;53.626;11.410;2022-07-23T03:12:52;3.43;;;0.93;;
5137;SDS011;53959;53.626;11.410;2022-07-23T03:15:18;9.40;;;0.97;;
5137;SDS011;53959;53.626;11.410;2022-07-23T03:17:43;1.00;;;1.00;;
5137;SDS011;53959;53.626;11.410;2022-07-23T03:20:09;4.40;;;1.20;;
5137;SDS011;53959;53.626;11.410;2022-07-23T03:22:35;2.63;;;1.40;;
5137;SDS011;53959;53.626;11.410;2022-07-23T03:25:00;7.10;;;1.30;;
5137;SDS011;53959;53.626;11.410;2022-07-23T03:27:27;1.60;;;0.90;;
5137;SDS011;53959;53.626;11.410;2022-07-23T03:29:55;4.77;;;1.57;;
5137;SDS011;53959;53.626;11.410;2022-07-23T03:32:22;4.33;;;1.60;;
5137;SDS011;53959;53.626;11.410;2022-07-23T03:34:48;3.37;;;0.93;;
5137;SDS011;53959;53.626;11.410;2022-07-23T03:37:14;2.57;;;1.50;;
5137;SDS011;53959;53.626;11.410;2022-07-23T03:39:40;4.27;;;1.23;;
5137;SDS011;53959;53.626;11.410;2022-07-23T03:42:06;2.73;;;1.10;;
5137;SDS011;53959;53.626;11.410;2022-07-23T03:44:32;4.60;;;1.63;;
5137;SDS011;53959;53.626;11.410;2022-07-23T03:46:58;2.80;;;1.20;;
5137;SDS011;53959;53.626;11.410;2022-07-23T03:49:24;3.40;;;1.67;;
5137;SDS011;53959;53.626;11.410;2022-07-23T03:51:50;2.70;;;1.40;;
5137;SDS011;53959;53.626;11.410;2022-07-23T03:54:15;3.40;;;2.30;;
5137;SDS011;53959;53.626;11.410;2022-07-23T03:56:41;8.47;;;1.77;;
5137;SDS011;53959;53.626;11.410;2022-07-23T03:59:07;3.07;;;1.77;;
5137;SDS011;53959;53.626;11.410;2022-07-23T04:01:33;1.20;;;1.20;;
5137;SDS011;53959;53.626;11.410;2022-07-23T04:03:59;4.27;;;1.57;;
5137;SDS011;53959;53.626;11.410;2022-07-23T04:06:24;1.77;;;1.47;;
5137;SDS011;53959;53.626;11.410;2022-07-23T04:08:50;5.10;;;1.60;;
5137;SDS011;53959;53.626;11.410;2022-07-23T04:11:16;4.90;;;1.50;;
5137;SDS011;53959;53.626;11.410;2022-07-23T04:13:41;10.03;;;1.57;;
5137;SDS011;53959;53.626;11.410;2022-07-23T04:16:07;5.47;;;2.00;;
5137;SDS011;53959;53.626;11.410;2022-07-23T04:18:32;1.60;;;1.50;;
5137;SDS011;53959;53.626;11.410;2022-07-23T04:20:58;3.60;;;1.30;;
5137;SDS011;53959;53.626;11.410;2022-07-23T04:23:23;7.90;;;1.77;;
5137;SDS011;53959;53.626;11.410;2022-07-23T04:25:49;4.40;;;1.40;;
5137;SDS011;53959;53.626;11.410;2022-07-23T04:28:14;2.63;;;1.70;;
5137;SDS011;53959;53.626;11.410;2022-07-23T04:30:40;5.13;;;1.43;;
5137;SDS011;53959;53.626;11.410;2022-07-23T04:33:06;2.70;;;1.47;;
5137;SDS011;53959;53.626;11.410;2022-07-23T04:35:32;3.73;;;1.27;;
5137;SDS011;53959;53.626;11.410;2022-07-23T04:37:58;5.60;;;2.00;;
5137;SDS011;53959;53.626;11.410;2022-07-23T04:40:24;1.40;;;1.40;;
5137;SDS011;53959;53.626;11.410;2022-07-23T04:42:50;2.33;;;1.40;;
5137;SDS011;53959;53.626;11.410;2022-07-23T04:45:15;6.07;;;1.77;;
5137;SDS011;53959;53.626;11.410;2022-07-23T04:47:41;1.77;;;1.37;;
5137;SDS011;53959;53.626;11.410;2022-07-23T04:50:07;3.00;;;1.90;;
5137;SDS011;53959;53.626;11.410;2022-07-23T04:52:32;3.00;;;1.60;;
5137;SDS011;53959;53.626;11.410;2022-07-23T04:54:58;4.00;;;1.80;;
5137;SDS011;53959;53.626;11.410;2022-07-23T04:57:24;4.53;;;2.00;;
5137;SDS011;53959;53.626;11.410;2022-07-23T04:59:49;8.23;;;1.80;;
5137;SDS011;53959;53.626;11.410;2022-07-23T05:02:14;1.67;;;1.60;;
5137;SDS011;53959;53.626;11.410;2022-07-23T05:04:40;14.87;;;1.83;;
5137;SDS011;53959;53.626;11.410;2022-07-23T05:07:05;1.40;;;1.30;;
5137;SDS011;53959;53.626;11.410;2022-07-23T05:09:31;3.83;;;1.70;;
5137;SDS011;53959;53.626;11.410;2022-07-23T05:11:57;3.53;;;2.10;;
5137;SDS011;53959;53.626;11.410;2022-07-23T05:14:22;5.40;;;2.07;;
5137;SDS011;53959;53.626;11.410;2022-07-23T05:16:48;7.33;;;1.53;;
5137;SDS011;53959;53.626;11.410;2022-07-23T05:19:13;2.37;;;2.17;;
5137;SDS011;53959;53.626;11.410;2022-07-23T05:21:39;3.90;;;1.73;;
5137;SDS011;53959;53.626;11.410;2022-07-23T05:24:05;3.60;;;2.27;;
5137;SDS011;53959;53.626;11.410;2022-07-23T05:26:31;3.00;;;1.87;;
5137;SDS011;53959;53.626;11.410;2022-07-23T05:28:56;2.03;;;1.83;;
5137;SDS011;53959;53.626;11.410;2022-07-23T05:31:22;4.93;;;1.57;;
5137;SDS011;53959;53.626;11.410;2022-07-23T05:33:47;2.73;;;2.10;;
5137;SDS011;53959;53.626;11.410;2022-07-23T05:36:13;3.20;;;1.30;;
5137;SDS011;53959;53.626;11.410;2022-07-23T05:38:38;2.30;;;1.57;;
5137;SDS011;53959;53.626;11.410;2022-07-23T05:41:04;5.47;;;1.80;;
5137;SDS011;53959;53.626;11.410;2022-07-23T05:43:30;3.40;;;2.30;;
5137;SDS011;53959;53.626;11.410;2022-07-23T05:45:55;1.40;;;1.30;;
5137;SDS011;53959;53.626;11.410;2022-07-23T05:48:21;4.83;;;1.30;;
5137;SDS011;53959;53.626;11.410;2022-07-23T05:50:47;2.60;;;1.20;;
5137;SDS011;53959;53.626;11.410;2022-07-23T05:53:13;2.10;;;1.40;;
5137;SDS011;53959;53.626;11.410;2022-07-23T05:55:38;3.00;;;1.50;;
5137;SDS011;53959;53.626;11.410;2022-07-23T05:58:04;3.90;;;1.40;;
5137;SDS011;53959;53.626;11.410;2022-07-23T06:00:30;7.33;;;1.70;;
5137;SDS011;53959;53.626;11.410;2022-07-23T06:02:56;2.83;;;1.37;;
5137;SDS011;53959;53.626;11.410;2022-07-23T06:05:21;11.00;;;1.60;;
5137;SDS011;53959;53.626;11.410;2022-07-23T06:07:47;1.60;;;1.50;;
5137;SDS011;53959;53.626;11.410;2022-07-23T06:10:13;1.37;;;1.13;;
5137;SDS011;53959;53.626;11.410;2022-07-23T06:12:39;1.87;;;1.33;;
5137;SDS011;53959;53.626;11.410;2022-07-23T06:15:04;6.83;;;1.30;;
5137;SDS011;53959;53.626;11.410;2022-07-23T06:17:30;4.00;;;1.40;;
5137;SDS011;53959;53.626;11.410;2022-07-23T06:19:56;6.10;;;1.47;;
5137;SDS011;53959;53.626;11.410;2022-07-23T06:22:22;2.27;;;0.97;;
5137;SDS011;53959;53.626;11.410;2022-07-23T06:24:48;0.90;;;0.90;;
5137;SDS011;53959;53.626;11.410;2022-07-23T06:27:14;3.30;;;1.30;;
5137;SDS011;53959;53.626;11.410;2022-07-23T06:29:40;1.83;;;1.40;;
5137;SDS011;53959;53.626;11.410;2022-07-23T06:32:06;1.80;;;1.57;;
5137;SDS011;53959;53.626;11.410;2022-07-23T06:34:32;4.40;;;1.27;;
5137;SDS011;53959;53.626;11.410;2022-07-23T06:36:58;5.73;;;1.30;;
5137;SDS011;53959;53.626;11.410;2022-07-23T06:39:24;6.83;;;1.83;;
5137;SDS011;53959;53.626;11.410;2022-07-23T06:41:50;6.83;;;1.37;;
5137;SDS011;53959;53.626;11.410;2022-07-23T06:44:16;4.90;;;1.67;;
5137;SDS011;53959;53.626;11.410;2022-07-23T06:46:42;2.80;;;1.30;;
5137;SDS011;53959;53.626;11.410;2022-07-23T06:49:07;5.43;;;1.63;;
5137;SDS011;53959;53.626;11.410;2022-07-23T06:51:33;5.67;;;1.37;;
5137;SDS011;53959;53.626;11.410;2022-07-23T06:53:59;7.00;;;1.70;;
5137;SDS011;53959;53.626;11.410;2022-07-23T06:56:25;4.87;;;2.13;;
5137;SDS011;53959;53.626;11.410;2022-07-23T06:58:50;11.30;;;1.67;;
5137;SDS011;53959;53.626;11.410;2022-07-23T07:01:16;2.00;;;0.90;;
5137;SDS011;53959;53.626;11.410;2022-07-23T07:03:42;4.57;;;1.10;;
5137;SDS011;53959;53.626;11.410;2022-07-23T07:06:07;5.40;;;1.63;;
5137;SDS011;53959;53.626;11.410;2022-07-23T07:08:33;3.33;;;1.03;;
5137;SDS011;53959;53.626;11.410;2022-07-23T07:10:58;2.10;;;0.80;;
5137;SDS011;53959;53.626;11.410;2022-07-23T07:13:24;1.90;;;0.90;;
5137;SDS011;53959;53.626;11.410;2022-07-23T07:15:49;5.53;;;1.20;;
5137;SDS011;53959;53.626;11.410;2022-07-23T07:18:15;2.80;;;1.00;;
5137;SDS011;53959;53.626;11.410;2022-07-23T07:20:41;10.90;;;1.40;;
5137;SDS011;53959;53.626;11.410;2022-07-23T07:23:06;5.13;;;0.90;;
5137;SDS011;53959;53.626;11.410;2022-07-23T07:25:32;4.10;;;0.63;;
5137;SDS011;53959;53.626;11.410;2022-07-23T07:27:58;1.70;;;0.80;;
5137;SDS011;53959;53.626;11.410;2022-07-23T07:30:24;3.33;;;1.60;;
5137;SDS011;53959;53.626;11.410;2022-07-23T07:32:49;1.63;;;0.83;;
5137;SDS011;53959;53.626;11.410;2022-07-23T07:35:15;1.13;;;0.63;;
5137;SDS011;53959;53.626;11.410;2022-07-23T07:37:40;1.53;;;0.70;;
5137;SDS011;53959;53.626;11.410;2022-07-23T07:40:07;8.20;;;1.20;;
5137;SDS011;53959;53.626;11.410;2022-07-23T07:42:33;0.90;;;0.80;;
5137;SDS011;53959;53.626;11.410;2022-07-23T07:44:59;3.47;;;1.10;;
5137;SDS011;53959;53.626;11.410;2022-07-23T07:47:25;1.03;;;0.57;;
5137;SDS011;53959;53.626;11.410;2022-07-23T07:49:50;2.00;;;0.50;;
5137;SDS011;53959;53.626;11.410;2022-07-23T07:52:16;0.70;;;0.60;;
5137;SDS011;53959;53.626;11.410;2022-07-23T07:54:41;1.10;;;0.73;;
5137;SDS011;53959;53.626;11.410;2022-07-23T07:57:07;8.37;;;0.87;;
5137;SDS011;53959;53.626;11.410;2022-07-23T07:59:33;0.97;;;0.90;;
5137;SDS011;53959;53.626;11.410;2022-07-23T08:01:59;12.00;;;3.90;;
5137;SDS011;53959;53.626;11.410;2022-07-23T08:04:24;6.00;;;1.10;;
5137;SDS011;53959;53.626;11.410;2022-07-23T08:06:50;2.00;;;0.90;;
5137;SDS011;53959;53.626;11.410;2022-07-23T08:09:15;3.30;;;0.67;;
5137;SDS011;53959;53.626;11.410;2022-07-23T08:11:41;2.10;;;0.93;;
5137;SDS011;53959;53.626;11.410;2022-07-23T08:14:06;2.30;;;1.00;;
5137;SDS011;53959;53.626;11.410;2022-07-23T08:16:32;1.70;;;0.80;;
5137;SDS011;53959;53.626;11.410;2022-07-23T08:18:57;1.63;;;0.80;;
5137;SDS011;53959;53.626;11.410;2022-07-23T08:21:23;3.43;;;0.90;;
5137;SDS011;53959;53.626;11.410;2022-07-23T08:23:48;5.60;;;1.23;;
5137;SDS011;53959;53.626;11.410;2022-07-23T08:26:14;2.87;;;1.27;;
5137;SDS011;53959;53.626;11.410;2022-07-23T08:28:39;3.10;;;1.20;;
5137;SDS011;53959;53.626;11.410;2022-07-23T08:31:05;4.87;;;0.70;;
5137;SDS011;53959;53.626;11.410;2022-07-23T08:33:31;2.50;;;0.60;;
5137;SDS011;53959;53.626;11.410;2022-07-23T08:35:57;2.93;;;0.90;;
5137;SDS011;53959;53.626;11.410;2022-07-23T08:38:23;0.83;;;0.80;;
5137;SDS011;53959;53.626;11.410;2022-07-23T08:40:53;3.27;;;0.80;;
5137;SDS011;53959;53.626;11.410;2022-07-23T08:43:23;2.93;;;0.60;;
5137;SDS011;53959;53.626;11.410;2022-07-23T08:45:51;0.70;;;0.70;;
5137;SDS011;53959;53.626;11.410;2022-07-23T08:48:21;4.40;;;0.80;;
5137;SDS011;53959;53.626;11.410;2022-07-23T08:50:50;2.10;;;0.90;;
5137;SDS011;53959;53.626;11.410;2022-07-23T08:53:18;1.23;;;1.10;;
5137;SDS011;53959;53.626;11.410;2022-07-23T08:55:45;0.80;;;0.80;;
5137;SDS011;53959;53.626;11.410;2022-07-23T08:58:12;1.27;;;0.77;;
5137;SDS011;53959;53.626;11.410;2022-07-23T09:00:38;0.80;;;0.80;;
5137;SDS011;53959;53.626;11.410;2022-07-23T09:03:04;5.47;;;1.33;;
5137;SDS011;53959;53.626;11.410;2022-07-23T09:05:30;5.30;;;1.00;;
5137;SDS011;53959;53.626;11.410;2022-07-23T09:15:58;2.37;;;0.90;;
5137;SDS011;53959;53.626;11.410;2022-07-23T09:18:31;2.20;;;0.87;;
5137;SDS011;53959;53.626;11.410;2022-07-23T09:21:09;0.83;;;0.83;;
5137;SDS011;53959;53.626;11.410;2022-07-23T09:23:37;1.07;;;0.70;;
5137;SDS011;53959;53.626;11.410;2022-07-23T09:26:16;1.23;;;0.60;;
5137;SDS011;53959;53.626;11.410;2022-07-23T09:28:50;5.17;;;0.67;;
5137;SDS011;53959;53.626;11.410;2022-07-23T09:31:18;2.13;;;0.90;;
5137;SDS011;53959;53.626;11.410;2022-07-23T09:33:44;1.90;;;1.07;;
5137;SDS011;53959;53.626;11.410;2022-07-23T09:36:10;2.07;;;1.47;;
5137;SDS011;53959;53.626;11.410;2022-07-23T09:38:36;5.60;;;0.83;;
5137;SDS011;53959;53.626;11.410;2022-07-23T09:41:13;1.03;;;0.63;;
5137;SDS011;53959;53.626;11.410;2022-07-23T09:43:40;7.50;;;1.00;;
5137;SDS011;53959;53.626;11.410;2022-07-23T09:46:21;0.93;;;0.70;;
5137;SDS011;53959;53.626;11.410;2022-07-23T09:48:51;7.43;;;0.70;;
5137;SDS011;53959;53.626;11.410;2022-07-23T09:51:21;3.33;;;0.73;;
5137;SDS011;53959;53.626;11.410;2022-07-23T09:53:59;1.97;;;0.60;;
5137;SDS011;53959;53.626;11.410;2022-07-23T09:56:24;5.30;;;0.60;;
5137;SDS011;53959;53.626;11.410;2022-07-23T09:58:52;1.80;;;0.60;;
5137;SDS011;53959;53.626;11.410;2022-07-23T10:01:48;1.37;;;0.90;;
5137;SDS011;53959;53.626;11.410;2022-07-23T10:04:15;0.70;;;0.70;;
5137;SDS011;53959;53.626;11.410;2022-07-23T10:06:40;3.90;;;0.70;;
5137;SDS011;53959;53.626;11.410;2022-07-23T10:09:10;0.90;;;0.63;;
5137;SDS011;53959;53.626;11.410;2022-07-23T10:11:40;6.30;;;0.90;;
5137;SDS011;53959;53.626;11.410;2022-07-23T10:14:06;0.57;;;0.57;;
5137;SDS011;53959;53.626;11.410;2022-07-23T10:16:32;0.50;;;0.50;;
5137;SDS011;53959;53.626;11.410;2022-07-23T10:18:58;3.87;;;0.70;;
5137;SDS011;53959;53.626;11.410;2022-07-23T10:21:33;0.50;;;0.50;;
5137;SDS011;53959;53.626;11.410;2022-07-23T10:29:51;1.60;;;0.50;;
5137;SDS011;53959;53.626;11.410;2022-07-23T10:32:28;5.60;;;0.90;;
5137;SDS011;53959;53.626;11.410;2022-07-23T10:35:28;1.33;;;0.60;;
5137;SDS011;53959;53.626;11.410;2022-07-23T10:38:16;0.60;;;0.53;;
5137;SDS011;53959;53.626;11.410;2022-07-23T10:40:53;0.80;;;0.30;;
5137;SDS011;53959;53.626;11.410;2022-07-23T10:43:19;0.67;;;0.33;;
5137;SDS011;53959;53.626;11.410;2022-07-23T10:45:45;0.50;;;0.50;;
5137;SDS011;53959;53.626;11.410;2022-07-23T10:48:12;0.40;;;0.30;;
5137;SDS011;53959;53.626;11.410;2022-07-23T10:50:41;0.60;;;0.30;;
5137;SDS011;53959;53.626;11.410;2022-07-23T10:53:17;0.40;;;0.40;;
5137;SDS011;53959;53.626;11.410;2022-07-23T10:55:47;12.00;;;1.13;;
5137;SDS011;53959;53.626;11.410;2022-07-23T10:58:22;1.80;;;0.60;;
5137;SDS011;53959;53.626;11.410;2022-07-23T11:03:56;0.87;;;0.50;;
5137;SDS011;53959;53.626;11.410;2022-07-23T11:06:23;2.43;;;0.60;;
5137;SDS011;53959;53.626;11.410;2022-07-23T11:09:03;1.60;;;0.80;;
5137;SDS011;53959;53.626;11.410;2022-07-23T11:12:07;1.47;;;0.87;;
5137;SDS011;53959;53.626;11.410;2022-07-23T11:14:58;2.10;;;0.77;;
5137;SDS011;53959;53.626;11.410;2022-07-23T11:17:38;2.20;;;0.50;;
5137;SDS011;53959;53.626;11.410;2022-07-23T11:20:24;6.43;;;0.80;;
5137;SDS011;53959;53.626;11.410;2022-07-23T11:22:52;1.47;;;0.80;;
5137;SDS011;53959;53.626;11.410;2022-07-23T11:27:46;0.53;;;0.53;;
5137;SDS011;53959;53.626;11.410;2022-07-23T11:32:51;1.80;;;0.60;;
5137;SDS011;53959;53.626;11.410;2022-07-23T11:35:21;0.63;;;0.50;;
5137;SDS011;53959;53.626;11.410;2022-07-23T11:37:52;3.63;;;0.90;;
5137;SDS011;53959;53.626;11.410;2022-07-23T11:40:39;1.17;;;0.43;;
5137;SDS011;53959;53.626;11.410;2022-07-23T11:43:09;0.63;;;0.63;;
5137;SDS011;53959;53.626;11.410;2022-07-23T11:45:37;2.00;;;0.50;;
5137;SDS011;53959;53.626;11.410;2022-07-23T11:48:06;2.60;;;1.03;;
5137;SDS011;53959;53.626;11.410;2022-07-23T11:50:33;1.17;;;1.00;;
5137;SDS011;53959;53.626;11.410;2022-07-23T11:52:59;0.67;;;0.40;;
5137;SDS011;53959;53.626;11.410;2022-07-23T11:55:25;0.77;;;0.37;;
5137;SDS011;53959;53.626;11.410;2022-07-23T11:57:53;0.87;;;0.60;;
5137;SDS011;53959;53.626;11.410;2022-07-23T12:00:21;1.03;;;0.93;;
5137;SDS011;53959;53.626;11.410;2022-07-23T12:02:50;2.63;;;0.60;;
5137;SDS011;53959;53.626;11.410;2022-07-23T12:05:20;1.50;;;0.57;;
5137;SDS011;53959;53.626;11.410;2022-07-23T12:07:55;1.47;;;0.60;;
5137;SDS011;53959;53.626;11.410;2022-07-23T12:10:23;3.87;;;1.10;;
5137;SDS011;53959;53.626;11.410;2022-07-23T12:12:54;4.80;;;0.53;;
5137;SDS011;53959;53.626;11.410;2022-07-23T12:15:25;0.77;;;0.60;;
5137;SDS011;53959;53.626;11.410;2022-07-23T12:17:52;0.80;;;0.60;;
5137;SDS011;53959;53.626;11.410;2022-07-23T12:20:26;1.23;;;0.60;;
5137;SDS011;53959;53.626;11.410;2022-07-23T12:22:55;4.47;;;1.50;;
5137;SDS011;53959;53.626;11.410;2022-07-23T12:25:23;7.47;;;0.80;;
5137;SDS011;53959;53.626;11.410;2022-07-23T12:27:58;1.17;;;0.80;;
5137;SDS011;53959;53.626;11.410;2022-07-23T12:30:27;3.57;;;0.70;;
5137;SDS011;53959;53.626;11.410;2022-07-23T12:32:57;1.13;;;0.53;;
5137;SDS011;53959;53.626;11.410;2022-07-23T12:35:29;2.73;;;0.60;;
5137;SDS011;53959;53.626;11.410;2022-07-23T12:38:16;0.87;;;0.47;;
5137;SDS011;53959;53.626;11.410;2022-07-23T12:40:47;1.10;;;0.90;;
5137;SDS011;53959;53.626;11.410;2022-07-23T12:43:36;1.77;;;1.10;;
5137;SDS011;53959;53.626;11.410;2022-07-23T12:46:07;2.60;;;1.10;;
5137;SDS011;53959;53.626;11.410;2022-07-23T12:51:22;1.37;;;0.50;;
5137;SDS011;53959;53.626;11.410;2022-07-23T12:56:33;1.00;;;0.63;;
5137;SDS011;53959;53.626;11.410;2022-07-23T12:59:12;1.53;;;0.50;;
5137;SDS011;53959;53.626;11.410;2022-07-23T13:01:44;0.77;;;0.50;;
5137;SDS011;53959;53.626;11.410;2022-07-23T13:04:19;0.47;;;0.47;;
5137;SDS011;53959;53.626;11.410;2022-07-23T13:06:49;3.63;;;0.93;;
5137;SDS011;53959;53.626;11.410;2022-07-23T13:09:24;3.03;;;0.90;;
5137;SDS011;53959;53.626;11.410;2022-07-23T13:11:51;1.53;;;0.60;;
5137;SDS011;53959;53.626;11.410;2022-07-23T13:14:19;0.57;;;0.57;;
5137;SDS011;53959;53.626;11.410;2022-07-23T13:16:45;1.23;;;1.00;;
5137;SDS011;53959;53.626;11.410;2022-07-23T13:19:11;0.70;;;0.70;;
5137;SDS011;53959;53.626;11.410;2022-07-23T13:21:38;0.80;;;0.50;;
5137;SDS011;53959;53.626;11.410;2022-07-23T13:24:05;1.13;;;0.87;;
5137;SDS011;53959;53.626;11.410;2022-07-23T13:26:31;0.97;;;0.60;;
5137;SDS011;53959;53.626;11.410;2022-07-23T13:28:56;1.00;;;0.63;;
5137;SDS011;53959;53.626;11.410;2022-07-23T13:31:23;0.97;;;0.70;;
5137;SDS011;53959;53.626;11.410;2022-07-23T13:33:49;1.33;;;0.60;;
5137;SDS011;53959;53.626;11.410;2022-07-23T13:36:14;1.57;;;0.70;;
5137;SDS011;53959;53.626;11.410;2022-07-23T13:38:40;2.90;;;0.60;;
5137;SDS011;53959;53.626;11.410;2022-07-23T13:41:05;0.40;;;0.40;;
5137;SDS011;53959;53.626;11.410;2022-07-23T13:43:31;0.63;;;0.60;;
5137;SDS011;53959;53.626;11.410;2022-07-23T13:45:57;1.17;;;0.40;;
5137;SDS011;53959;53.626;11.410;2022-07-23T13:48:22;0.60;;;0.57;;
5137;SDS011;53959;53.626;11.410;2022-07-23T13:50:49;0.70;;;0.57;;
5137;SDS011;53959;53.626;11.410;2022-07-23T13:53:16;1.33;;;1.00;;
5137;SDS011;53959;53.626;11.410;2022-07-23T13:55:43;0.63;;;0.50;;
5137;SDS011;53959;53.626;11.410;2022-07-23T13:58:10;5.10;;;0.80;;
5137;SDS011;53959;53.626;11.410;2022-07-23T14:00:40;0.40;;;0.40;;
5137;SDS011;53959;53.626;11.410;2022-07-23T14:03:08;1.60;;;0.50;;
5137;SDS011;53959;53.626;11.410;2022-07-23T14:05:34;0.83;;;0.60;;
5137;SDS011;53959;53.626;11.410;2022-07-23T14:08:00;0.50;;;0.40;;
5137;SDS011;53959;53.626;11.410;2022-07-23T14:10:26;0.37;;;0.37;;
5137;SDS011;53959;53.626;11.410;2022-07-23T14:12:51;0.50;;;0.50;;
5137;SDS011;53959;53.626;11.410;2022-07-23T14:15:20;0.90;;;0.40;;
5137;SDS011;53959;53.626;11.410;2022-07-23T14:17:46;2.10;;;0.50;;
5137;SDS011;53959;53.626;11.410;2022-07-23T14:20:12;0.80;;;0.53;;
5137;SDS011;53959;53.626;11.410;2022-07-23T14:22:39;0.83;;;0.50;;
5137;SDS011;53959;53.626;11.410;2022-07-23T14:25:06;0.60;;;0.50;;
5137;SDS011;53959;53.626;11.410;2022-07-23T14:27:32;1.17;;;0.57;;
5137;SDS011;53959;53.626;11.410;2022-07-23T14:29:58;1.10;;;0.50;;
5137;SDS011;53959;53.626;11.410;2022-07-23T14:32:24;1.70;;;0.40;;
5137;SDS011;53959;53.626;11.410;2022-07-23T14:34:50;1.47;;;0.60;;
5137;SDS011;53959;53.626;11.410;2022-07-23T14:37:16;1.10;;;0.30;;
5137;SDS011;53959;53.626;11.410;2022-07-23T14:39:42;0.53;;;0.53;;
5137;SDS011;53959;53.626;11.410;2022-07-23T14:42:08;0.50;;;0.50;;
5137;SDS011;53959;53.626;11.410;2022-07-23T14:44:34;2.33;;;0.60;;
5137;SDS011;53959;53.626;11.410;2022-07-23T14:47:01;0.40;;;0.40;;
5137;SDS011;53959;53.626;11.410;2022-07-23T14:49:29;1.13;;;0.50;;
5137;SDS011;53959;53.626;11.410;2022-07-23T14:51:58;1.27;;;0.30;;
5137;SDS011;53959;53.626;11.410;2022-07-23T14:54:24;0.80;;;0.33;;
5137;SDS011;53959;53.626;11.410;2022-07-23T14:56:52;1.70;;;0.50;;
5137;SDS011;53959;53.626;11.410;2022-07-23T14:59:18;4.00;;;0.70;;
5137;SDS011;53959;53.626;11.410;2022-07-23T15:01:44;0.80;;;0.50;;
5137;SDS011;53959;53.626;11.410;2022-07-23T15:04:09;3.40;;;1.33;;
5137;SDS011;53959;53.626;11.410;2022-07-23T15:06:35;2.20;;;0.60;;
5137;SDS011;53959;53.626;11.410;2022-07-23T15:09:01;0.40;;;0.40;;
5137;SDS011;53959;53.626;11.410;2022-07-23T15:11:27;0.80;;;0.50;;
5137;SDS011;53959;53.626;11.410;2022-07-23T15:13:56;1.17;;;0.50;;
5137;SDS011;53959;53.626;11.410;2022-07-23T15:16:21;1.90;;;0.50;;